sensor_id;sensor_type;location;lat;lon;timestamp;pressure;altitude;pressure_sealevel;temperature;humidity
46598;BME280;32318;48.858;8.252;2023-03-02T00:03:16;100452.25;;;2.01;65.38
46598;BME280;32318;48.858;8.252;2023-03-02T00:11:17;100449.06;;;1.83;65.90
46598;BME280;32318;48.858;8.252;2023-03-02T00:19:18;100440.44;;;1.94;66.48
46598;BME280;32318;48.858;8.252;2023-03-02T00:27:18;100433.03;;;1.86;66.87
46598;BME280;32318;48.858;8.252;2023-03-02T00:35:18;100433.16;;;1.85;66.96
46598;BME280;32318;48.858;8.252;2023-03-02T00:43:19;100438.06;;;1.64;68.22
46598;BME280;32318;48.858;8.252;2023-03-02T00:51:21;100439.31;;;1.58;68.20
46598;BME280;32318;48.858;8.252;2023-03-02T00:59:22;100435.91;;;1.43;68.76
46598;BME280;32318;48.858;8.252;2023-03-02T01:07:25;100428.34;;;1.38;68.66
46598;BME280;32318;48.858;8.252;2023-03-02T01:15:27;100420.28;;;1.27;69.04
46598;BME280;32318;48.858;8.252;2023-03-02T01:23:27;100421.72;;;1.18;69.38
46598;BME280;32318;48.858;8.252;2023-03-02T01:31:28;100411.53;;;0.99;70.33
46598;BME280;32318;48.858;8.252;2023-03-02T01:39:29;100405.38;;;0.86;70.25
46598;BME280;32318;48.858;8.252;2023-03-02T01:47:37;100393.25;;;0.83;70.68
46598;BME280;32318;48.858;8.252;2023-03-02T01:55:38;100394.06;;;0.71;70.77
46598;BME280;32318;48.858;8.252;2023-03-02T02:03:38;100387.50;;;0.49;71.25
46598;BME280;32318;48.858;8.252;2023-03-02T02:11:43;100371.31;;;0.42;71.61
46598;BME280;32318;48.858;8.252;2023-03-02T02:28:26;100370.84;;;0.36;71.84
46598;BME280;32318;48.858;8.252;2023-03-02T02:36:33;100367.72;;;0.43;71.94
46598;BME280;32318;48.858;8.252;2023-03-02T02:44:37;100357.94;;;0.60;71.20
46598;BME280;32318;48.858;8.252;2023-03-02T02:52:38;100353.47;;;0.47;71.55
46598;BME280;32318;48.858;8.252;2023-03-02T03:00:40;100360.41;;;0.49;71.44
46598;BME280;32318;48.858;8.252;2023-03-02T03:16:46;100359.66;;;0.46;71.76
46598;BME280;32318;48.858;8.252;2023-03-02T03:24:46;100363.41;;;0.42;72.06
46598;BME280;32318;48.858;8.252;2023-03-02T03:32:47;100357.03;;;0.46;71.91
46598;BME280;32318;48.858;8.252;2023-03-02T03:40:47;100362.09;;;0.35;72.55
46598;BME280;32318;48.858;8.252;2023-03-02T03:48:48;100359.81;;;0.43;71.93
46598;BME280;32318;48.858;8.252;2023-03-02T03:56:49;100367.56;;;0.32;72.29
46598;BME280;32318;48.858;8.252;2023-03-02T04:04:49;100363.16;;;0.18;73.02
46598;BME280;32318;48.858;8.252;2023-03-02T04:12:50;100379.34;;;0.39;72.53
46598;BME280;32318;48.858;8.252;2023-03-02T04:20:50;100383.56;;;0.42;72.39
46598;BME280;32318;48.858;8.252;2023-03-02T04:28:50;100385.38;;;0.41;71.62
46598;BME280;32318;48.858;8.252;2023-03-02T04:36:51;100373.34;;;0.37;71.84
46598;BME280;32318;48.858;8.252;2023-03-02T04:44:51;100372.41;;;0.38;72.23
46598;BME280;32318;48.858;8.252;2023-03-02T04:52:52;100390.31;;;0.31;72.33
46598;BME280;32318;48.858;8.252;2023-03-02T05:00:52;100384.41;;;0.28;72.40
46598;BME280;32318;48.858;8.252;2023-03-02T05:08:53;100386.59;;;0.21;72.45
46598;BME280;32318;48.858;8.252;2023-03-02T05:16:54;100369.22;;;0.19;72.53
46598;BME280;32318;48.858;8.252;2023-03-02T05:24:54;100368.31;;;0.05;73.03
46598;BME280;32318;48.858;8.252;2023-03-02T05:32:54;100382.53;;;-0.28;73.61
46598;BME280;32318;48.858;8.252;2023-03-02T05:40:54;100378.72;;;-0.53;73.66
46598;BME280;32318;48.858;8.252;2023-03-02T05:48:55;100382.53;;;-0.58;74.16
46598;BME280;32318;48.858;8.252;2023-03-02T05:56:55;100379.19;;;-0.46;74.05
46598;BME280;32318;48.858;8.252;2023-03-02T06:04:55;100382.66;;;-0.45;74.24
46598;BME280;32318;48.858;8.252;2023-03-02T06:12:55;100383.59;;;-0.46;73.93
46598;BME280;32318;48.858;8.252;2023-03-02T06:20:57;100393.84;;;-0.58;74.18
46598;BME280;32318;48.858;8.252;2023-03-02T06:28:57;100403.56;;;-0.44;73.86
46598;BME280;32318;48.858;8.252;2023-03-02T06:36:58;100410.19;;;-0.53;74.36
46598;BME280;32318;48.858;8.252;2023-03-02T06:44:58;100417.97;;;-0.51;74.95
46598;BME280;32318;48.858;8.252;2023-03-02T06:52:59;100425.56;;;-0.46;74.66
46598;BME280;32318;48.858;8.252;2023-03-02T07:00:59;100430.84;;;-0.32;74.56
46598;BME280;32318;48.858;8.252;2023-03-02T07:09:00;100453.16;;;-0.25;74.59
46598;BME280;32318;48.858;8.252;2023-03-02T07:17:03;100439.50;;;-0.16;74.51
46598;BME280;32318;48.858;8.252;2023-03-02T07:25:04;100441.03;;;-0.11;74.24
46598;BME280;32318;48.858;8.252;2023-03-02T07:33:05;100440.38;;;-0.01;74.38
46598;BME280;32318;48.858;8.252;2023-03-02T07:41:07;100454.50;;;0.13;73.94
46598;BME280;32318;48.858;8.252;2023-03-02T07:49:07;100451.00;;;0.27;73.04
46598;BME280;32318;48.858;8.252;2023-03-02T07:57:08;100460.78;;;0.39;73.69
46598;BME280;32318;48.858;8.252;2023-03-02T08:05:09;100474.00;;;0.67;72.99
46598;BME280;32318;48.858;8.252;2023-03-02T08:13:10;100465.28;;;0.81;72.18
46598;BME280;32318;48.858;8.252;2023-03-02T08:21:12;100471.25;;;0.97;71.83
46598;BME280;32318;48.858;8.252;2023-03-02T08:29:13;100474.31;;;1.18;71.47
46598;BME280;32318;48.858;8.252;2023-03-02T08:37:13;100478.63;;;1.34;70.95
46598;BME280;32318;48.858;8.252;2023-03-02T08:45:14;100475.06;;;1.48;71.27
46598;BME280;32318;48.858;8.252;2023-03-02T08:53:14;100469.47;;;1.67;70.33
46598;BME280;32318;48.858;8.252;2023-03-02T09:01:17;100461.00;;;1.89;70.76
46598;BME280;32318;48.858;8.252;2023-03-02T09:09:17;100465.53;;;2.26;69.72
46598;BME280;32318;48.858;8.252;2023-03-02T09:17:18;100462.16;;;2.49;69.44
46598;BME280;32318;48.858;8.252;2023-03-02T09:25:18;100462.75;;;2.79;68.00
46598;BME280;32318;48.858;8.252;2023-03-02T09:33:19;100471.81;;;3.01;66.39
46598;BME280;32318;48.858;8.252;2023-03-02T09:49:34;100463.56;;;3.54;64.56
46598;BME280;32318;48.858;8.252;2023-03-02T09:57:37;100474.31;;;3.64;64.80
46598;BME280;32318;48.858;8.252;2023-03-02T10:06:01;100467.88;;;3.79;65.16
46598;BME280;32318;48.858;8.252;2023-03-02T10:14:22;100467.72;;;4.16;63.57
46598;BME280;32318;48.858;8.252;2023-03-02T10:22:28;100469.44;;;4.29;63.35
46598;BME280;32318;48.858;8.252;2023-03-02T10:30:34;100473.31;;;4.47;63.27
46598;BME280;32318;48.858;8.252;2023-03-02T10:38:35;100469.59;;;4.61;63.47
46598;BME280;32318;48.858;8.252;2023-03-02T10:46:42;100475.75;;;4.73;62.38
46598;BME280;32318;48.858;8.252;2023-03-02T10:54:43;100478.13;;;4.87;63.25
46598;BME280;32318;48.858;8.252;2023-03-02T11:02:58;100483.13;;;5.25;61.86
46598;BME280;32318;48.858;8.252;2023-03-02T11:11:01;100469.38;;;5.42;61.07
46598;BME280;32318;48.858;8.252;2023-03-02T11:19:08;100465.03;;;5.41;61.08
46598;BME280;32318;48.858;8.252;2023-03-02T11:27:20;100466.72;;;5.42;61.29
46598;BME280;32318;48.858;8.252;2023-03-02T11:35:42;100461.13;;;5.57;61.52
46598;BME280;32318;48.858;8.252;2023-03-02T11:43:43;100452.94;;;5.60;61.47
46598;BME280;32318;48.858;8.252;2023-03-02T11:51:53;100448.94;;;5.65;61.90
46598;BME280;32318;48.858;8.252;2023-03-02T11:59:55;100439.91;;;5.89;61.96
46598;BME280;32318;48.858;8.252;2023-03-02T12:08:04;100445.88;;;6.03;61.22
46598;BME280;32318;48.858;8.252;2023-03-02T12:24:35;100432.47;;;6.47;60.02
46598;BME280;32318;48.858;8.252;2023-03-02T12:32:36;100430.53;;;6.49;61.45
46598;BME280;32318;48.858;8.252;2023-03-02T12:49:10;100414.31;;;6.83;60.47
46598;BME280;32318;48.858;8.252;2023-03-02T12:57:17;100409.16;;;6.91;60.34
46598;BME280;32318;48.858;8.252;2023-03-02T13:05:20;100398.41;;;7.02;59.00
46598;BME280;32318;48.858;8.252;2023-03-02T13:13:35;100393.53;;;7.07;58.29
46598;BME280;32318;48.858;8.252;2023-03-02T13:21:37;100391.31;;;7.03;59.29
46598;BME280;32318;48.858;8.252;2023-03-02T13:29:38;100393.66;;;6.96;59.24
46598;BME280;32318;48.858;8.252;2023-03-02T13:37:40;100388.25;;;7.27;59.04
46598;BME280;32318;48.858;8.252;2023-03-02T13:45:53;100384.63;;;7.28;58.18
46598;BME280;32318;48.858;8.252;2023-03-02T13:53:56;100381.53;;;7.52;58.70
46598;BME280;32318;48.858;8.252;2023-03-02T14:01:57;100374.53;;;7.71;57.97
46598;BME280;32318;48.858;8.252;2023-03-02T14:09:58;100379.13;;;7.79;57.94
46598;BME280;32318;48.858;8.252;2023-03-02T14:17:58;100375.88;;;8.05;57.35
46598;BME280;32318;48.858;8.252;2023-03-02T14:25:59;100373.53;;;8.29;56.00
46598;BME280;32318;48.858;8.252;2023-03-02T14:33:59;100369.47;;;8.35;55.51
46598;BME280;32318;48.858;8.252;2023-03-02T14:42:00;100367.41;;;8.19;56.40
46598;BME280;32318;48.858;8.252;2023-03-02T14:50:00;100363.94;;;8.09;57.07
46598;BME280;32318;48.858;8.252;2023-03-02T14:58:10;100355.69;;;8.12;56.76
46598;BME280;32318;48.858;8.252;2023-03-02T15:06:26;100354.28;;;8.08;56.46
46598;BME280;32318;48.858;8.252;2023-03-02T15:14:27;100360.59;;;8.07;56.42
46598;BME280;32318;48.858;8.252;2023-03-02T15:22:28;100366.22;;;8.04;56.64
46598;BME280;32318;48.858;8.252;2023-03-02T15:30:28;100382.59;;;7.99;57.64
46598;BME280;32318;48.858;8.252;2023-03-02T15:38:29;100377.59;;;7.86;57.72
46598;BME280;32318;48.858;8.252;2023-03-02T15:46:29;100382.34;;;7.82;58.01
46598;BME280;32318;48.858;8.252;2023-03-02T15:54:30;100378.59;;;7.65;57.47
46598;BME280;32318;48.858;8.252;2023-03-02T16:02:30;100379.72;;;7.43;58.14
46598;BME280;32318;48.858;8.252;2023-03-02T16:10:30;100390.91;;;7.27;59.37
46598;BME280;32318;48.858;8.252;2023-03-02T16:18:31;100396.03;;;6.99;60.00
46598;BME280;32318;48.858;8.252;2023-03-02T16:26:34;100401.16;;;6.81;60.47
46598;BME280;32318;48.858;8.252;2023-03-02T16:34:35;100414.38;;;6.62;60.57
46598;BME280;32318;48.858;8.252;2023-03-02T16:42:35;100419.97;;;6.68;61.01
46598;BME280;32318;48.858;8.252;2023-03-02T16:50:36;100421.00;;;6.77;60.63
46598;BME280;32318;48.858;8.252;2023-03-02T16:58:36;100426.44;;;6.75;60.70
46598;BME280;32318;48.858;8.252;2023-03-02T17:06:42;100432.41;;;6.68;60.47
46598;BME280;32318;48.858;8.252;2023-03-02T17:14:43;100438.69;;;6.67;60.82
46598;BME280;32318;48.858;8.252;2023-03-02T17:22:43;100446.88;;;6.54;60.78
46598;BME280;32318;48.858;8.252;2023-03-02T17:30:43;100457.00;;;6.39;61.41
46598;BME280;32318;48.858;8.252;2023-03-02T17:38:44;100459.25;;;6.43;61.64
46598;BME280;32318;48.858;8.252;2023-03-02T17:46:44;100476.22;;;6.31;61.75
46598;BME280;32318;48.858;8.252;2023-03-02T17:54:44;100487.03;;;6.18;61.92
46598;BME280;32318;48.858;8.252;2023-03-02T18:02:45;100493.94;;;6.09;62.07
46598;BME280;32318;48.858;8.252;2023-03-02T18:10:45;100502.16;;;5.95;62.24
46598;BME280;32318;48.858;8.252;2023-03-02T18:18:45;100512.56;;;5.87;62.57
46598;BME280;32318;48.858;8.252;2023-03-02T18:26:45;100527.53;;;5.76;63.01
46598;BME280;32318;48.858;8.252;2023-03-02T18:34:46;100527.34;;;5.57;63.31
46598;BME280;32318;48.858;8.252;2023-03-02T18:42:46;100529.78;;;5.48;63.87
46598;BME280;32318;48.858;8.252;2023-03-02T18:50:47;100539.41;;;5.38;63.75
46598;BME280;32318;48.858;8.252;2023-03-02T18:58:48;100553.16;;;5.43;63.91
46598;BME280;32318;48.858;8.252;2023-03-02T19:06:48;100542.06;;;5.38;64.19
46598;BME280;32318;48.858;8.252;2023-03-02T19:14:50;100555.06;;;5.41;64.26
46598;BME280;32318;48.858;8.252;2023-03-02T19:22:50;100559.63;;;5.39;64.22
46598;BME280;32318;48.858;8.252;2023-03-02T19:30:50;100551.22;;;5.34;63.81
46598;BME280;32318;48.858;8.252;2023-03-02T19:38:51;100562.44;;;5.15;64.76
46598;BME280;32318;48.858;8.252;2023-03-02T19:46:51;100570.50;;;5.02;64.64
46598;BME280;32318;48.858;8.252;2023-03-02T19:54:52;100574.31;;;4.86;65.92
46598;BME280;32318;48.858;8.252;2023-03-02T20:02:52;100584.44;;;4.81;65.63
46598;BME280;32318;48.858;8.252;2023-03-02T20:10:52;100579.75;;;4.85;65.65
46598;BME280;32318;48.858;8.252;2023-03-02T20:18:53;100589.34;;;4.75;66.45
46598;BME280;32318;48.858;8.252;2023-03-02T20:26:53;100585.25;;;4.70;66.71
46598;BME280;32318;48.858;8.252;2023-03-02T20:34:53;100585.00;;;4.74;66.00
46598;BME280;32318;48.858;8.252;2023-03-02T20:42:54;100586.19;;;4.58;66.51
46598;BME280;32318;48.858;8.252;2023-03-02T20:50:54;100584.84;;;4.41;66.68
46598;BME280;32318;48.858;8.252;2023-03-02T20:58:55;100585.75;;;4.29;67.44
46598;BME280;32318;48.858;8.252;2023-03-02T21:06:55;100599.66;;;4.19;67.59
46598;BME280;32318;48.858;8.252;2023-03-02T21:14:55;100607.69;;;4.18;67.60
46598;BME280;32318;48.858;8.252;2023-03-02T21:22:56;100610.41;;;4.05;67.99
46598;BME280;32318;48.858;8.252;2023-03-02T21:30:57;100602.63;;;3.90;68.94
46598;BME280;32318;48.858;8.252;2023-03-02T21:38:57;100587.06;;;3.74;69.86
46598;BME280;32318;48.858;8.252;2023-03-02T21:46:57;100586.88;;;3.65;70.01
46598;BME280;32318;48.858;8.252;2023-03-02T21:54:57;100592.84;;;3.55;69.27
46598;BME280;32318;48.858;8.252;2023-03-02T22:02:59;100595.16;;;3.47;70.25
46598;BME280;32318;48.858;8.252;2023-03-02T22:11:00;100588.44;;;3.30;70.58
46598;BME280;32318;48.858;8.252;2023-03-02T22:19:00;100591.22;;;3.16;71.36
46598;BME280;32318;48.858;8.252;2023-03-02T22:27:16;100582.16;;;3.07;71.88
46598;BME280;32318;48.858;8.252;2023-03-02T22:43:30;100592.38;;;2.98;72.06
46598;BME280;32318;48.858;8.252;2023-03-02T22:51:32;100586.69;;;3.05;71.62
46598;BME280;32318;48.858;8.252;2023-03-02T22:59:36;100584.78;;;3.07;72.02
46598;BME280;32318;48.858;8.252;2023-03-02T23:07:36;100589.13;;;3.08;71.45
46598;BME280;32318;48.858;8.252;2023-03-02T23:15:36;100587.22;;;3.10;71.71
46598;BME280;32318;48.858;8.252;2023-03-02T23:23:37;100591.75;;;3.08;71.59
46598;BME280;32318;48.858;8.252;2023-03-02T23:31:37;100592.69;;;3.07;71.74
46598;BME280;32318;48.858;8.252;2023-03-02T23:39:37;100589.75;;;2.98;72.58
46598;BME280;32318;48.858;8.252;2023-03-02T23:47:37;100577.94;;;2.91;72.51
46598;BME280;32318;48.858;8.252;2023-03-02T23:55:40;100596.41;;;2.91;72.99
